Island Wind — WDG9077 — position and weather

sailwx.info

Track history (hours):
 
Tides and Currents Weather Stations Pressure Air Temp Water Temp Dewpoint Dewpoint Depression Visibility Wind Speed Wind Dir Waves Ship Positions

Island Wind

Owner: Island Tug and Barge, Seattle, WA. More information available from US FCC via Universal Licensing System and Coast Guard Vessel Documentation Center.

Last reported at 2018-Jan-18 15:16 UTC. Time now 2018-Jan-19 07:59 UTC.
Position N 47°33' W 122°21'.

Length 30 m.

Type: Towing. MMSI: 359195462.

Date/timePositionNaut miles runAvg speedWind from/ knotsBaromVisibWave heightAir tempDewpointWater temp
2018-Jan-18 15:16N 47°33' W 122°21'1 2.4
2018-Jan-18 15:00N 47°33' W 122°20'1 2.0
2018-Jan-18 14:25N 47°34' W 122°21'0 0.2
2018-Jan-18 13:36N 47°34' W 122°21'0 0.2
2018-Jan-18 11:05N 47°34' W 122°21'0 0.0
2018-Jan-18 10:59N 47°34' W 122°21'0 0.0
2018-Jan-18 10:07N 47°34' W 122°21'0 0.0
2018-Jan-18 10:00N 47°34' W 122°21'0 0.0
2018-Jan-18 07:09N 47°34' W 122°21'1 1.6
2018-Jan-18 06:45N 47°34' W 122°21'1 4.6
2018-Jan-18 06:29N 47°33' W 122°20'1 2.4
2018-Jan-18 05:56N 47°34' W 122°21'0 0.1
2018-Jan-18 05:26N 47°34' W 122°21'1 2.0
2018-Jan-18 04:59N 47°35' W 122°22'1 3.0
2018-Jan-18 04:30N 47°36' W 122°22'0 0.5
2018-Jan-18 04:00N 47°36' W 122°23'0 0.3
2018-Jan-18 03:30N 47°36' W 122°23'2 4.2
2018-Jan-18 03:00N 47°35' W 122°25'3 6.3
2018-Jan-18 02:30N 47°32' W 122°28'3 6.6
2018-Jan-18 02:00N 47°29' W 122°30'3 6.1
2018-Jan-18 01:30N 47°26' W 122°31'3 5.9
2018-Jan-18 01:00N 47°23' W 122°32'5 5.3
2018-Jan-17 23:59N 47°18' W 122°32'1 4.2
2018-Jan-17 23:51N 47°17' W 122°32'  
2018-Jan-11 15:31N 47°34' W 122°21'0 0.0
2018-Jan-11 15:30N 47°34' W 122°21'0 0.6
2018-Jan-11 15:00N 47°34' W 122°21'1 0.8
2018-Jan-11 14:22N 47°35' W 122°22'2 4.6
2018-Jan-11 14:00N 47°36' W 122°23'2 4.3
2018-Jan-11 13:30N 47°35' W 122°25'3 5.5
2018-Jan-11 13:00N 47°32' W 122°27'3 6.0
2018-Jan-11 12:30N 47°30' W 122°30'3 6.5
2018-Jan-11 12:01N 47°27' W 122°31'3 6.2
2018-Jan-11 11:30N 47°24' W 122°32'3 5.6
2018-Jan-11 11:00N 47°21' W 122°33'3 5.2
2018-Jan-11 10:30N 47°18' W 122°33'3 5.2
2018-Jan-11 10:00N 47°16' W 122°33'3 4.8
2018-Jan-11 09:29N 47°13' W 122°35'3 5.2
2018-Jan-11 08:59N 47°11' W 122°37'3 0.4
2018-Jan-11 02:38N 47°09' W 122°39'4 2.5
2018-Jan-11 01:11N 47°12' W 122°36'1 5.3
2018-Jan-11 00:58N 47°13' W 122°35'2 4.6
2018-Jan-11 00:30N 47°15' W 122°34'2 3.1
2018-Jan-11 00:00N 47°16' W 122°33'1 2.6
2018-Jan-10 23:26N 47°18' W 122°33'2 3.7
2018-Jan-10 23:00N 47°19' W 122°33'2 4.8
2018-Jan-10 22:30N 47°22' W 122°32'3 5.7
2018-Jan-10 22:00N 47°24' W 122°32'3 5.7
2018-Jan-10 21:30N 47°27' W 122°31'3 5.7
2018-Jan-10 21:01N 47°30' W 122°30'3 5.7
2018-Jan-10 20:30N 47°32' W 122°28'3 6.0
2018-Jan-10 20:00N 47°35' W 122°25'2 4.9
2018-Jan-10 19:30N 47°35' W 122°22'1 2.5
2018-Jan-10 19:00N 47°34' W 122°21'0 0.8
2018-Jan-10 18:30N 47°34' W 122°21'1 1.5
2018-Jan-10 18:00N 47°34' W 122°21'0 0.1
2018-Jan-10 17:30N 47°34' W 122°21'1 1.3
2018-Jan-10 17:00N 47°34' W 122°21'0 0.0
2018-Jan-10 16:30N 47°34' W 122°21'0 0.0
2018-Jan-10 16:00N 47°34' W 122°21'0 0.0
2018-Jan-10 15:30N 47°34' W 122°21'0 0.0
2018-Jan-10 15:00N 47°34' W 122°21'0 0.0
2018-Jan-10 14:30N 47°34' W 122°21'0 0.0
2018-Jan-09 22:43N 47°34' W 122°21'0 1.9
2018-Jan-09 22:31N 47°34' W 122°21'1 1.5
2018-Jan-09 22:01N 47°35' W 122°22'2 3.4
2018-Jan-09 21:30N 47°36' W 122°22'1 2.6
2018-Jan-09 21:00N 47°37' W 122°24'2 4.5
2018-Jan-09 20:30N 47°38' W 122°27'2 4.1
2018-Jan-09 20:00N 47°40' W 122°29'3 5.5
2018-Jan-09 19:30N 47°42' W 122°28'3 5.7
2018-Jan-09 19:00N 47°45' W 122°27'3 5.3
2018-Jan-09 18:30N 47°48' W 122°28'3 5.1
2018-Jan-09 18:00N 47°50' W 122°29'3 5.4
2018-Jan-09 17:31N 47°53' W 122°30'3 6.6
2018-Jan-09 17:00N 47°56' W 122°32'4 7.5
2018-Jan-09 16:29N 47°58' W 122°36'21 6.6
2018-Jan-09 13:19N 48°18' W 122°47'2 6.0
2018-Jan-09 12:59N 48°20' W 122°46'3 5.9
2018-Jan-09 12:30N 48°23' W 122°45'3 5.9
2018-Jan-09 12:00N 48°26' W 122°45'3 6.4
2018-Jan-09 11:30N 48°29' W 122°45'3 6.6
2018-Jan-09 11:00N 48°32' W 122°45'3 6.8
2018-Jan-09 10:30N 48°36' W 122°45'3 6.6
2018-Jan-09 10:01N 48°39' W 122°44'3 5.9
2018-Jan-09 09:30N 48°42' W 122°44'3 5.5
2018-Jan-09 08:59N 48°44' W 122°46'3 5.6
2018-Jan-09 08:24N 48°46' W 122°50'3 5.5
2018-Jan-09 07:50N 48°48' W 122°54'2 5.1
2018-Jan-09 07:28N 48°49' W 122°57'4 5.1
2018-Jan-09 06:39N 48°51' W 123°02'1 5.5
2018-Jan-09 06:28N 48°52' W 123°03'4 5.7
2018-Jan-09 05:49N 48°54' W 123°08'2 5.6
2018-Jan-09 05:29N 48°55' W 123°11'3 5.4
2018-Jan-09 04:55N 48°57' W 123°14'2 5.4
2018-Jan-09 04:30N 48°58' W 123°17'3 5.6
2018-Jan-09 04:00N 48°60' W 123°20'3 5.8
2018-Jan-09 03:29N 49°02' W 123°23'3 5.3
2018-Jan-09 03:00N 49°04' W 123°25'3 5.2
2018-Jan-09 02:28N 49°07' W 123°24'3 5.9
2018-Jan-09 02:00N 49°10' W 123°24'3 6.3
2018-Jan-09 01:29N 49°13' W 123°22'3 5.7
2018-Jan-09 01:00N 49°15' W 123°20'2 3.2
2018-Jan-09 00:30N 49°15' W 123°17'0 0.7
2018-Jan-08 23:59N 49°15' W 123°18'1 1.6
2018-Jan-08 23:30N 49°15' W 123°16'1 1.9
2018-Jan-08 23:01N 49°15' W 123°15'0 0.0
2018-Jan-08 22:30N 49°15' W 123°15'0 0.0
2018-Jan-08 22:00N 49°15' W 123°15'0 0.0
2018-Jan-08 21:30N 49°15' W 123°15'0 0.0
2018-Jan-08 21:00N 49°15' W 123°15'0 0.0
2018-Jan-08 20:30N 49°15' W 123°15'0 0.0
2018-Jan-08 20:00N 49°15' W 123°15'0 0.0
2018-Jan-08 19:30N 49°15' W 123°15'0 0.0
2018-Jan-08 19:00N 49°15' W 123°15'0 0.0
2018-Jan-08 18:30N 49°15' W 123°15'0 0.0
2018-Jan-08 17:58N 49°15' W 123°15'0 0.0
2018-Jan-08 17:30N 49°15' W 123°15'0 0.0
2018-Jan-08 17:00N 49°15' W 123°15'0 0.0
2018-Jan-08 16:30N 49°15' W 123°15'0 0.0
2018-Jan-08 16:00N 49°15' W 123°15'0 0.0
2018-Jan-08 15:29N 49°15' W 123°15'  
Track history (hours):
 
Tides and Currents Weather Stations Pressure Air Temp Water Temp Dewpoint Dewpoint Depression Visibility Wind Speed Wind Dir Waves Ship Positions

Island Wind

Owner: Island Tug and Barge, Seattle, WA. More information available from US FCC via Universal Licensing System and Coast Guard Vessel Documentation Center.

Last reported at 2018-Jan-18 15:16 UTC. Time now 2018-Jan-19 07:59 UTC.
Position N 47°33' W 122°21'.

Length 30 m.

Type: Towing. MMSI: 359195462.

Date/timePositionNaut miles runAvg speedWind from/ knotsBaromVisibWave heightAir tempDewpointWater temp
2018-Jan-18 15:16N 47°33' W 122°21'1 2.4
2018-Jan-18 15:00N 47°33' W 122°20'1 2.0
2018-Jan-18 14:25N 47°34' W 122°21'0 0.2
2018-Jan-18 13:36N 47°34' W 122°21'0 0.2
2018-Jan-18 11:05N 47°34' W 122°21'0 0.0
2018-Jan-18 10:59N 47°34' W 122°21'0 0.0
2018-Jan-18 10:07N 47°34' W 122°21'0 0.0
2018-Jan-18 10:00N 47°34' W 122°21'0 0.0
2018-Jan-18 07:09N 47°34' W 122°21'1 1.6
2018-Jan-18 06:45N 47°34' W 122°21'1 4.6
2018-Jan-18 06:29N 47°33' W 122°20'1 2.4
2018-Jan-18 05:56N 47°34' W 122°21'0 0.1
2018-Jan-18 05:26N 47°34' W 122°21'1 2.0
2018-Jan-18 04:59N 47°35' W 122°22'1 3.0
2018-Jan-18 04:30N 47°36' W 122°22'0 0.5
2018-Jan-18 04:00N 47°36' W 122°23'0 0.3
2018-Jan-18 03:30N 47°36' W 122°23'2 4.2
2018-Jan-18 03:00N 47°35' W 122°25'3 6.3
2018-Jan-18 02:30N 47°32' W 122°28'3 6.6
2018-Jan-18 02:00N 47°29' W 122°30'3 6.1
2018-Jan-18 01:30N 47°26' W 122°31'3 5.9
2018-Jan-18 01:00N 47°23' W 122°32'5 5.3
2018-Jan-17 23:59N 47°18' W 122°32'1 4.2
2018-Jan-17 23:51N 47°17' W 122°32'  
2018-Jan-11 15:31N 47°34' W 122°21'0 0.0
2018-Jan-11 15:30N 47°34' W 122°21'0 0.6
2018-Jan-11 15:00N 47°34' W 122°21'1 0.8
2018-Jan-11 14:22N 47°35' W 122°22'2 4.6
2018-Jan-11 14:00N 47°36' W 122°23'2 4.3
2018-Jan-11 13:30N 47°35' W 122°25'3 5.5
2018-Jan-11 13:00N 47°32' W 122°27'3 6.0
2018-Jan-11 12:30N 47°30' W 122°30'3 6.5
2018-Jan-11 12:01N 47°27' W 122°31'3 6.2
2018-Jan-11 11:30N 47°24' W 122°32'3 5.6
2018-Jan-11 11:00N 47°21' W 122°33'3 5.2
2018-Jan-11 10:30N 47°18' W 122°33'3 5.2
2018-Jan-11 10:00N 47°16' W 122°33'3 4.8
2018-Jan-11 09:29N 47°13' W 122°35'3 5.2
2018-Jan-11 08:59N 47°11' W 122°37'3 0.4
2018-Jan-11 02:38N 47°09' W 122°39'4 2.5
2018-Jan-11 01:11N 47°12' W 122°36'1 5.3
2018-Jan-11 00:58N 47°13' W 122°35'2 4.6
2018-Jan-11 00:30N 47°15' W 122°34'2 3.1
2018-Jan-11 00:00N 47°16' W 122°33'1 2.6
2018-Jan-10 23:26N 47°18' W 122°33'2 3.7
2018-Jan-10 23:00N 47°19' W 122°33'2 4.8
2018-Jan-10 22:30N 47°22' W 122°32'3 5.7
2018-Jan-10 22:00N 47°24' W 122°32'3 5.7
2018-Jan-10 21:30N 47°27' W 122°31'3 5.7
2018-Jan-10 21:01N 47°30' W 122°30'3 5.7
2018-Jan-10 20:30N 47°32' W 122°28'3 6.0
2018-Jan-10 20:00N 47°35' W 122°25'2 4.9
2018-Jan-10 19:30N 47°35' W 122°22'1 2.5
2018-Jan-10 19:00N 47°34' W 122°21'0 0.8
2018-Jan-10 18:30N 47°34' W 122°21'1 1.5
2018-Jan-10 18:00N 47°34' W 122°21'0 0.1
2018-Jan-10 17:30N 47°34' W 122°21'1 1.3
2018-Jan-10 17:00N 47°34' W 122°21'0 0.0
2018-Jan-10 16:30N 47°34' W 122°21'0 0.0
2018-Jan-10 16:00N 47°34' W 122°21'0 0.0
2018-Jan-10 15:30N 47°34' W 122°21'0 0.0
2018-Jan-10 15:00N 47°34' W 122°21'0 0.0
2018-Jan-10 14:30N 47°34' W 122°21'0 0.0
2018-Jan-09 22:43N 47°34' W 122°21'0 1.9
2018-Jan-09 22:31N 47°34' W 122°21'1 1.5
2018-Jan-09 22:01N 47°35' W 122°22'2 3.4
2018-Jan-09 21:30N 47°36' W 122°22'1 2.6
2018-Jan-09 21:00N 47°37' W 122°24'2 4.5
2018-Jan-09 20:30N 47°38' W 122°27'2 4.1
2018-Jan-09 20:00N 47°40' W 122°29'3 5.5
2018-Jan-09 19:30N 47°42' W 122°28'3 5.7
2018-Jan-09 19:00N 47°45' W 122°27'3 5.3
2018-Jan-09 18:30N 47°48' W 122°28'3 5.1
2018-Jan-09 18:00N 47°50' W 122°29'3 5.4
2018-Jan-09 17:31N 47°53' W 122°30'3 6.6
2018-Jan-09 17:00N 47°56' W 122°32'4 7.5
2018-Jan-09 16:29N 47°58' W 122°36'21 6.6
2018-Jan-09 13:19N 48°18' W 122°47'2 6.0
2018-Jan-09 12:59N 48°20' W 122°46'3 5.9
2018-Jan-09 12:30N 48°23' W 122°45'3 5.9
2018-Jan-09 12:00N 48°26' W 122°45'3 6.4
2018-Jan-09 11:30N 48°29' W 122°45'3 6.6
2018-Jan-09 11:00N 48°32' W 122°45'3 6.8
2018-Jan-09 10:30N 48°36' W 122°45'3 6.6
2018-Jan-09 10:01N 48°39' W 122°44'3 5.9
2018-Jan-09 09:30N 48°42' W 122°44'3 5.5
2018-Jan-09 08:59N 48°44' W 122°46'3 5.6
2018-Jan-09 08:24N 48°46' W 122°50'3 5.5
2018-Jan-09 07:50N 48°48' W 122°54'2 5.1
2018-Jan-09 07:28N 48°49' W 122°57'4 5.1
2018-Jan-09 06:39N 48°51' W 123°02'1 5.5
2018-Jan-09 06:28N 48°52' W 123°03'4 5.7
2018-Jan-09 05:49N 48°54' W 123°08'2 5.6
2018-Jan-09 05:29N 48°55' W 123°11'3 5.4
2018-Jan-09 04:55N 48°57' W 123°14'2 5.4
2018-Jan-09 04:30N 48°58' W 123°17'3 5.6
2018-Jan-09 04:00N 48°60' W 123°20'3 5.8
2018-Jan-09 03:29N 49°02' W 123°23'3 5.3
2018-Jan-09 03:00N 49°04' W 123°25'3 5.2
2018-Jan-09 02:28N 49°07' W 123°24'3 5.9
2018-Jan-09 02:00N 49°10' W 123°24'3 6.3
2018-Jan-09 01:29N 49°13' W 123°22'3 5.7
2018-Jan-09 01:00N 49°15' W 123°20'2 3.2
2018-Jan-09 00:30N 49°15' W 123°17'0 0.7
2018-Jan-08 23:59N 49°15' W 123°18'1 1.6
2018-Jan-08 23:30N 49°15' W 123°16'1 1.9
2018-Jan-08 23:01N 49°15' W 123°15'0 0.0
2018-Jan-08 22:30N 49°15' W 123°15'0 0.0
2018-Jan-08 22:00N 49°15' W 123°15'0 0.0
2018-Jan-08 21:30N 49°15' W 123°15'0 0.0
2018-Jan-08 21:00N 49°15' W 123°15'0 0.0
2018-Jan-08 20:30N 49°15' W 123°15'0 0.0
2018-Jan-08 20:00N 49°15' W 123°15'0 0.0
2018-Jan-08 19:30N 49°15' W 123°15'0 0.0
2018-Jan-08 19:00N 49°15' W 123°15'0 0.0
2018-Jan-08 18:30N 49°15' W 123°15'0 0.0
2018-Jan-08 17:58N 49°15' W 123°15'0 0.0
2018-Jan-08 17:30N 49°15' W 123°15'0 0.0
2018-Jan-08 17:00N 49°15' W 123°15'0 0.0
2018-Jan-08 16:30N 49°15' W 123°15'0 0.0
2018-Jan-08 16:00N 49°15' W 123°15'0 0.0
2018-Jan-08 15:29N 49°15' W 123°15'  

Dump ship's entire track history